| Date | Time | Temp. (oF) | Dew Point (oF) | Rel. Hum. (%) | Press. (in.) | Wind Dir. | Wind Speed (mph) | Hourly Rainfall (in.) |
|
|---|---|---|---|---|---|---|---|---|---|
| 1 | 10/09 | 00:00 | 61 | 57 | 88 | 29.96 | SSW | 7 | 0.00 |
| 2 | 10/08 | 23:00 | 61 | 57 | 88 | 29.97 | S | 5 | 0.00 |
| 3 | 10/08 | 22:00 | 61 | 57 | 87 | 29.98 | S | 8 | 0.00 |
| 4 | 10/08 | 21:00 | 61 | 55 | 82 | 29.99 | SSW | 4 | 0.00 |
| 5 | 10/08 | 20:00 | 61 | 54 | 79 | 30.00 | SSW | 7 | 0.00 |
| 6 | 10/08 | 19:00 | 62 | 53 | 75 | 30.00 | SSW | 8 | 0.00 |
| 7 | 10/08 | 18:00 | 63 | 53 | 72 | 30.00 | SSE | 4 | 0.00 |
| 8 | 10/08 | 17:00 | 64 | 53 | 68 | 30.00 | SW | 10 | 0.00 |
| 9 | 10/08 | 16:00 | 65 | 52 | 65 | 30.01 | SSW | 15 | 0.00 |
| 10 | 10/08 | 15:00 | 67 | 52 | 60 | 30.03 | S | 9 | 0.00 |
| 11 | 10/08 | 14:00 | 65 | 51 | 61 | 30.07 | SSW | 6 | 0.00 |
| 12 | 10/08 | 13:00 | 62 | 50 | 66 | 30.11 | SSW | 13 | 0.00 |
| 13 | 10/08 | 12:00 | 61 | 49 | 67 | 30.13 | S | 12 | 0.00 |
| 14 | 10/08 | 11:00 | 59 | 49 | 72 | 30.15 | SSW | 4 | 0.00 |
| 15 | 10/08 | 10:00 | 53 | 50 | 92 | 30.16 | S | 2 | 0.00 |
| 16 | 10/08 | 09:00 | 46 | 45 | 100 | 30.18 | NE | 1 | 0.00 |
| 17 | 10/08 | 08:00 | 42 | 41 | 100 | 30.18 | ESE | 0 | 0.00 |
| 18 | 10/08 | 07:00 | 40 | 40 | 100 | 30.18 | NE | 0 | 0.00 |
| 19 | 10/08 | 06:00 | 40 | 40 | 100 | 30.18 | NE | 0 | 0.00 |
| 20 | 10/08 | 05:00 | 41 | 41 | 100 | 30.19 | NW | 0 | 0.00 |
| 21 | 10/08 | 04:00 | 41 | 40 | 99 | 30.18 | NW | 0 | 0.00 |
| 22 | 10/08 | 03:00 | 41 | 40 | 98 | 30.18 | WSW | 0 | 0.00 |
| 23 | 10/08 | 02:00 | 42 | 41 | 98 | 30.21 | WSW | 0 | 0.00 |
| 24 | 10/08 | 01:00 | 43 | 42 | 97 | 30.22 | WSW | 0 | 0.00 |